createdAt,value
2022-09-12T00:01:20.210Z,16.83
2022-09-12T00:03:47.760Z,16.05
2022-09-12T00:06:29.394Z,15.65
2022-09-12T00:09:00.397Z,15.95
2022-09-12T00:11:27.736Z,16.35
2022-09-12T00:14:00.867Z,15.98
2022-09-12T00:16:30.653Z,20.15
2022-09-12T00:18:57.792Z,16.50
2022-09-12T00:21:24.528Z,18.45
2022-09-12T00:23:51.889Z,19.70
2022-09-12T00:26:20.894Z,16.17
2022-09-12T00:28:48.701Z,16.27
2022-09-12T00:31:23.738Z,15.45
2022-09-12T00:33:51.839Z,14.43
2022-09-12T00:36:22.471Z,17.27
2022-09-12T00:38:51.100Z,16.23
2022-09-12T00:41:19.488Z,15.77
2022-09-12T00:43:54.062Z,17.42
2022-09-12T00:46:38.946Z,17.70
2022-09-12T00:49:19.937Z,15.00
2022-09-12T00:52:10.429Z,16.85
2022-09-12T00:54:56.448Z,15.82
2022-09-12T00:57:35.026Z,16.05
2022-09-12T01:00:16.546Z,18.05
2022-09-12T01:02:46.720Z,15.73
2022-09-12T01:05:14.196Z,16.73
2022-09-12T01:07:42.638Z,21.25
2022-09-12T01:10:11.254Z,17.83
2022-09-12T01:12:41.092Z,20.55
2022-09-12T01:15:08.817Z,19.05
2022-09-12T01:18:15.611Z,18.33
2022-09-12T01:21:12.760Z,17.70
2022-09-12T01:24:46.830Z,19.13
2022-09-12T01:27:45.641Z,19.35
2022-09-12T01:30:46.259Z,18.63
2022-09-12T01:33:52.852Z,21.02
2022-09-12T01:36:36.259Z,19.83
2022-09-12T01:39:32.523Z,19.45
2022-09-12T01:42:51.391Z,21.50
2022-09-12T01:45:32.443Z,20.85
2022-09-12T01:48:14.293Z,21.52
2022-09-12T01:50:56.564Z,21.17
2022-09-12T01:53:32.876Z,18.80
2022-09-12T01:56:22.272Z,21.02
2022-09-12T01:59:19.072Z,19.00
2022-09-12T02:02:01.187Z,23.25
2022-09-12T02:04:46.142Z,22.05
2022-09-12T02:07:24.851Z,21.27
2022-09-12T02:10:17.295Z,21.35
2022-09-12T02:12:52.185Z,20.42
2022-09-12T02:15:27.351Z,21.33
2022-09-12T02:17:58.168Z,21.98
2022-09-12T02:20:48.433Z,22.02
2022-09-12T02:23:30.836Z,21.38
2022-09-12T02:26:08.526Z,22.83
2022-09-12T02:28:41.386Z,21.98
2022-09-12T02:31:40.155Z,22.15
2022-09-12T02:34:21.921Z,21.48
2022-09-12T02:37:09.240Z,20.02
2022-09-12T02:39:36.830Z,20.25
2022-09-12T02:42:04.842Z,22.35
2022-09-12T02:44:33.973Z,21.60
2022-09-12T02:47:16.884Z,19.10
2022-09-12T02:49:44.125Z,21.88
2022-09-12T02:52:11.016Z,23.45
2022-09-12T02:54:38.312Z,22.23
2022-09-12T02:57:22.808Z,21.35
2022-09-12T02:59:56.954Z,23.02
2022-09-12T03:03:03.820Z,24.95
2022-09-12T03:05:47.157Z,22.00
2022-09-12T03:08:32.100Z,21.23
2022-09-12T03:11:26.455Z,21.58
2022-09-12T03:14:31.639Z,22.80
2022-09-12T03:17:50.567Z,22.40
2022-09-12T03:20:42.611Z,23.67
2022-09-12T03:23:51.622Z,24.13
2022-09-12T03:26:56.488Z,23.85
2022-09-12T03:29:26.600Z,22.42
2022-09-12T03:31:58.457Z,24.20
2022-09-12T03:34:27.607Z,22.98
2022-09-12T03:36:55.404Z,24.30
2022-09-12T03:39:27.821Z,24.67
2022-09-12T03:41:56.120Z,24.48
2022-09-12T03:44:24.342Z,26.02
2022-09-12T03:46:51.404Z,22.58
2022-09-12T03:49:18.507Z,22.20
2022-09-12T03:51:45.262Z,24.67
2022-09-12T03:54:12.329Z,25.40
2022-09-12T03:56:40.263Z,22.95
2022-09-12T03:59:07.838Z,26.90
2022-09-12T04:01:35.024Z,24.63
2022-09-12T04:04:02.010Z,25.13
2022-09-12T04:06:29.636Z,24.92
2022-09-12T04:08:56.394Z,26.63
2022-09-12T04:11:23.771Z,24.77
2022-09-12T04:13:50.634Z,24.40
2022-09-12T04:16:18.571Z,21.75
2022-09-12T04:18:46.831Z,25.08
2022-09-12T04:21:17.972Z,25.92
2022-09-12T04:23:45.543Z,25.17
2022-09-12T04:26:13.896Z,24.58
2022-09-12T04:28:41.778Z,24.77
2022-09-12T04:31:27.196Z,30.60
2022-09-12T04:33:59.686Z,28.02
2022-09-12T04:36:29.247Z,25.92
2022-09-12T04:38:56.486Z,23.42
2022-09-12T04:41:27.567Z,27.25
2022-09-12T04:44:04.610Z,26.23
2022-09-12T04:46:38.677Z,24.90
2022-09-12T04:49:06.102Z,26.08
2022-09-12T04:51:36.393Z,25.25
2022-09-12T04:54:08.278Z,24.80
2022-09-12T04:56:39.832Z,23.73
2022-09-12T04:59:08.599Z,28.48
2022-09-12T05:01:36.073Z,28.17
2022-09-12T05:04:04.140Z,26.42
2022-09-12T05:06:34.703Z,25.15
2022-09-12T05:09:04.988Z,26.27
2022-09-12T05:12:02.660Z,25.77
2022-09-12T05:14:22.859Z,27.23
2022-09-12T05:16:49.885Z,26.45
2022-09-12T05:19:17.275Z,25.40
2022-09-12T05:21:44.274Z,25.45
2022-09-12T05:24:11.599Z,26.98
2022-09-12T05:26:38.787Z,28.35
2022-09-12T05:29:06.972Z,25.02
2022-09-12T05:31:34.748Z,26.08
2022-09-12T05:34:01.721Z,23.13
2022-09-12T05:36:30.755Z,25.08
2022-09-12T05:38:59.759Z,25.77
2022-09-12T05:41:33.765Z,26.25
2022-09-12T05:44:04.672Z,28.38
2022-09-12T05:46:37.032Z,26.80
2022-09-12T05:49:07.012Z,26.95
2022-09-12T05:51:38.058Z,26.15
2022-09-12T05:54:07.564Z,28.77
2022-09-12T05:56:39.583Z,25.23
2022-09-12T05:59:19.804Z,25.45
2022-09-12T06:01:48.394Z,26.27
2022-09-12T06:04:15.775Z,28.90
2022-09-12T06:06:45.334Z,26.45
2022-09-12T06:09:14.946Z,31.10
2022-09-12T06:11:42.576Z,31.75
2022-09-12T06:14:12.304Z,35.13
2022-09-12T06:16:40.011Z,31.75
2022-09-12T06:19:28.012Z,32.42
2022-09-12T06:21:55.305Z,29.15
2022-09-12T06:24:22.424Z,31.75
2022-09-12T06:26:52.510Z,31.95
2022-09-12T06:29:19.571Z,35.17
2022-09-12T06:31:47.058Z,35.38
2022-09-12T06:34:16.515Z,35.67
2022-09-12T06:36:47.127Z,32.50
2022-09-12T06:39:17.546Z,32.33
2022-09-12T06:41:45.070Z,37.25
2022-09-12T06:44:20.843Z,33.88
2022-09-12T06:46:48.173Z,36.25
2022-09-12T06:49:15.297Z,35.33
2022-09-12T06:51:42.558Z,37.65
2022-09-12T06:54:13.864Z,37.40
2022-09-12T06:56:40.950Z,36.65
2022-09-12T06:59:07.740Z,36.63
2022-09-12T07:01:34.535Z,35.42
2022-09-12T07:04:04.150Z,37.10
2022-09-12T07:06:40.607Z,38.22
2022-09-12T07:09:12.343Z,38.10
2022-09-12T07:11:41.554Z,37.10
2022-09-12T07:14:12.832Z,36.50
2022-09-12T07:16:40.020Z,36.17
2022-09-12T07:19:08.851Z,36.72
2022-09-12T07:21:39.512Z,38.50
2022-09-12T07:24:09.412Z,37.63
2022-09-12T07:26:36.864Z,40.63
2022-09-12T07:29:25.540Z,36.90
2022-09-12T07:31:51.777Z,35.22
2022-09-12T07:34:18.525Z,38.35
2022-09-12T07:36:45.273Z,35.20
2022-09-12T07:39:12.233Z,36.20
2022-09-12T07:41:39.131Z,34.08
2022-09-12T07:44:08.635Z,36.78
2022-09-12T07:46:35.424Z,34.85
2022-09-12T07:49:02.928Z,31.58
2022-09-12T07:51:31.542Z,34.55
2022-09-12T07:53:58.942Z,35.53
2022-09-12T07:56:31.228Z,35.58
2022-09-12T07:58:59.552Z,31.55
2022-09-12T08:01:26.863Z,34.38
2022-09-12T08:03:57.838Z,35.40
2022-09-12T08:06:27.623Z,31.85
2022-09-12T08:08:58.014Z,32.40
2022-09-12T08:11:27.988Z,35.53
2022-09-12T08:13:57.520Z,34.30
2022-09-12T08:16:30.139Z,32.47
2022-09-12T08:18:57.710Z,28.27
2022-09-12T08:21:28.080Z,30.08
2022-09-12T08:24:01.954Z,38.00
2022-09-12T08:26:30.319Z,31.45
2022-09-12T08:28:57.250Z,29.73
2022-09-12T08:31:26.810Z,31.83
2022-09-12T08:33:57.453Z,29.33
2022-09-12T08:36:27.301Z,27.27
2022-09-12T08:39:01.629Z,27.35
2022-09-12T08:41:44.211Z,29.52
2022-09-12T08:44:27.392Z,26.70
2022-09-12T08:47:33.776Z,27.33
2022-09-12T08:50:09.754Z,22.30
2022-09-12T08:53:03.338Z,22.85
2022-09-12T08:55:44.416Z,26.00
2022-09-12T08:58:14.617Z,29.17
2022-09-12T09:00:59.316Z,23.20
2022-09-12T09:04:12.700Z,25.55
2022-09-12T09:07:20.500Z,23.23
2022-09-12T09:10:28.367Z,27.65
2022-09-12T09:13:49.741Z,27.55
2022-09-12T09:16:27.625Z,23.73
2022-09-12T09:18:58.180Z,24.27
2022-09-12T09:21:31.651Z,23.65
2022-09-12T09:24:10.033Z,29.75
2022-09-12T09:27:41.644Z,22.23
2022-09-12T09:30:16.798Z,26.92
2022-09-12T09:32:51.231Z,25.92
2022-09-12T09:35:38.383Z,24.52
2022-09-12T09:38:43.954Z,27.40
2022-09-12T09:41:39.852Z,24.50
2022-09-12T09:46:34.578Z,19.45
2022-09-12T09:49:03.709Z,21.92
2022-09-12T09:51:37.445Z,17.45
2022-09-12T09:54:29.345Z,16.90
2022-09-12T09:56:56.345Z,16.92
2022-09-12T09:59:29.776Z,19.33
2022-09-12T10:02:03.957Z,16.40
2022-09-12T10:04:39.199Z,16.73
2022-09-12T10:07:19.683Z,18.00
2022-09-12T10:10:17.588Z,15.50
2022-09-12T10:12:45.302Z,15.68
2022-09-12T10:15:27.832Z,15.35
2022-09-12T10:17:56.520Z,13.80
2022-09-12T10:20:33.342Z,12.63
2022-09-12T10:23:23.466Z,16.30
2022-09-12T10:25:57.514Z,13.07
2022-09-12T10:28:37.288Z,12.00
2022-09-12T10:31:06.885Z,14.98
2022-09-12T10:33:52.629Z,12.20
2022-09-12T10:36:21.751Z,11.77
2022-09-12T10:38:57.144Z,11.45
2022-09-12T10:41:24.624Z,11.02
2022-09-12T10:43:51.579Z,10.95
2022-09-12T10:46:18.333Z,9.68
2022-09-12T10:48:50.421Z,11.77
2022-09-12T10:51:28.399Z,10.50
2022-09-12T10:54:03.352Z,11.35
2022-09-12T10:57:03.927Z,11.75
2022-09-12T10:59:52.169Z,10.98
2022-09-12T11:02:30.164Z,11.32
2022-09-12T11:05:08.115Z,10.65
2022-09-12T11:07:55.374Z,9.27
2022-09-12T11:10:49.520Z,9.10
2022-09-12T11:13:44.567Z,8.60
2022-09-12T11:16:42.819Z,8.57
2022-09-12T11:19:38.286Z,8.10
2022-09-12T11:22:40.543Z,8.18
2022-09-12T11:25:28.228Z,7.35
2022-09-12T11:28:15.872Z,7.70
2022-09-12T11:31:07.622Z,6.90
2022-09-12T11:33:50.038Z,7.50
2022-09-12T11:37:08.631Z,6.78
2022-09-12T11:39:43.336Z,6.07
2022-09-12T11:42:21.081Z,5.80
2022-09-12T11:44:58.208Z,6.22
2022-09-12T11:47:28.729Z,5.40
2022-09-12T11:49:58.192Z,5.50
2022-09-12T11:52:33.558Z,5.88
2022-09-12T11:55:15.704Z,6.65
2022-09-12T11:57:56.746Z,5.32
2022-09-12T12:00:36.659Z,6.63
2022-09-12T12:03:30.725Z,5.30
2022-09-12T12:06:38.218Z,5.68
2022-09-12T12:09:05.643Z,5.50
2022-09-12T12:11:57.602Z,5.05
2022-09-12T12:14:44.471Z,5.72
2022-09-12T12:17:21.868Z,5.55
2022-09-12T12:20:04.981Z,5.95
2022-09-12T12:22:34.722Z,5.13
2022-09-12T12:25:37.402Z,6.10
2022-09-12T12:28:06.304Z,6.78
2022-09-12T12:30:33.499Z,5.32
2022-09-12T12:33:07.184Z,5.90
2022-09-12T12:35:47.647Z,5.90
2022-09-12T12:38:34.374Z,4.88
2022-09-12T12:41:19.295Z,6.43
2022-09-12T12:43:56.260Z,4.97
2022-09-12T12:46:26.572Z,4.85
2022-09-12T12:49:17.683Z,4.60
2022-09-12T12:51:53.515Z,4.88
2022-09-12T12:54:41.047Z,4.50
2022-09-12T12:57:47.064Z,4.43
2022-09-12T13:00:29.720Z,4.75
2022-09-12T13:03:08.193Z,3.83
2022-09-12T13:05:46.164Z,4.50
2022-09-12T13:08:18.678Z,3.42
2022-09-12T13:10:57.938Z,4.13
2022-09-12T13:13:52.022Z,4.38
2022-09-12T13:16:36.911Z,4.32
2022-09-12T13:19:19.233Z,3.70
2022-09-12T13:22:15.693Z,4.05
2022-09-12T13:24:49.117Z,3.75
2022-09-12T13:27:20.935Z,4.22
2022-09-12T13:29:48.074Z,4.95
2022-09-12T13:32:17.755Z,4.35
2022-09-12T13:35:13.228Z,5.38
2022-09-12T13:38:40.983Z,3.20
2022-09-12T13:41:45.388Z,4.40
2022-09-12T13:44:17.863Z,3.17
2022-09-12T13:46:45.355Z,4.15
2022-09-12T13:49:33.115Z,4.35
2022-09-12T13:52:30.235Z,3.45
2022-09-12T13:55:00.395Z,3.10
2022-09-12T13:57:38.715Z,2.75
2022-09-12T14:00:19.560Z,3.60
2022-09-12T14:02:50.078Z,3.38
2022-09-12T14:05:25.813Z,3.00
2022-09-12T14:08:06.880Z,3.47
2022-09-12T14:10:37.749Z,3.63
2022-09-12T14:13:18.552Z,3.58
2022-09-12T14:15:49.513Z,3.70
2022-09-12T14:18:36.570Z,3.80
2022-09-12T14:21:34.069Z,4.00
2022-09-12T14:24:04.679Z,2.58
2022-09-12T14:26:36.681Z,4.47
2022-09-12T14:29:07.079Z,3.30
2022-09-12T14:31:39.231Z,3.03
2022-09-12T14:34:09.497Z,5.40
2022-09-12T14:36:57.552Z,3.22
2022-09-12T14:39:33.691Z,3.17
2022-09-12T14:42:12.120Z,3.65
2022-09-12T14:44:41.042Z,4.88
2022-09-12T14:47:19.507Z,4.65
2022-09-12T14:49:47.080Z,4.47
2022-09-12T14:52:38.379Z,2.88
2022-09-12T14:55:27.419Z,3.17
2022-09-12T14:58:22.643Z,3.95
2022-09-12T15:01:02.373Z,3.22
2022-09-12T15:03:48.709Z,2.47
2022-09-12T15:06:32.456Z,3.42
2022-09-12T15:09:13.474Z,3.75
2022-09-12T15:11:40.265Z,3.17
2022-09-12T15:14:13.966Z,3.40
2022-09-12T15:16:42.088Z,3.15
2022-09-12T15:19:08.869Z,4.93
2022-09-12T15:21:35.628Z,4.68
2022-09-12T15:24:02.706Z,2.88
2022-09-12T15:26:30.507Z,3.30
2022-09-12T15:28:57.941Z,11.13
2022-09-12T15:31:31.461Z,2.97
2022-09-12T15:34:01.519Z,4.75
2022-09-12T15:36:29.309Z,3.20
2022-09-12T15:38:56.494Z,3.20
2022-09-12T15:41:38.319Z,2.58
2022-09-12T15:44:12.227Z,2.83
2022-09-12T15:46:39.457Z,4.00
2022-09-12T15:49:10.271Z,3.05
2022-09-12T15:51:37.079Z,3.30
2022-09-12T15:54:04.684Z,1.80
2022-09-12T15:56:31.420Z,4.40
2022-09-12T15:59:00.093Z,5.47
2022-09-12T16:01:29.341Z,3.47
2022-09-12T16:03:57.312Z,2.50
2022-09-12T16:06:24.407Z,3.25
2022-09-12T16:08:51.163Z,2.22
2022-09-12T16:11:27.377Z,3.45
2022-09-12T16:13:56.641Z,3.65
2022-09-12T16:16:23.843Z,3.35
2022-09-12T16:18:52.131Z,4.18
2022-09-12T16:21:18.971Z,3.22
2022-09-12T16:23:47.271Z,4.15
2022-09-12T16:26:15.348Z,4.15
2022-09-12T16:28:42.522Z,3.50
2022-09-12T16:31:13.012Z,3.08
2022-09-12T16:33:40.681Z,3.10
2022-09-12T16:36:14.266Z,5.75
2022-09-12T16:38:47.949Z,5.65
2022-09-12T16:41:16.683Z,5.72
2022-09-12T16:43:45.395Z,6.57
2022-09-12T16:46:22.906Z,5.45
2022-09-12T16:48:53.650Z,5.45
2022-09-12T16:51:27.826Z,5.15
2022-09-12T16:53:55.773Z,6.63
2022-09-12T16:56:23.485Z,4.43
2022-09-12T16:58:50.777Z,6.20
2022-09-12T17:01:24.064Z,3.53
2022-09-12T17:03:56.450Z,3.60
2022-09-12T17:06:25.085Z,3.40
2022-09-12T17:08:54.262Z,3.67
2022-09-12T17:11:30.915Z,5.85
2022-09-12T17:14:05.485Z,5.55
2022-09-12T17:16:36.822Z,4.28
2022-09-12T17:19:05.436Z,4.28
2022-09-12T17:21:32.983Z,3.05
2022-09-12T17:23:59.755Z,3.88
2022-09-12T17:26:27.091Z,3.45
2022-09-12T17:28:53.919Z,4.60
2022-09-12T17:31:20.997Z,3.20
2022-09-12T17:33:48.156Z,4.22
2022-09-12T17:36:17.648Z,3.95
2022-09-12T17:38:46.187Z,3.88
2022-09-12T17:41:17.979Z,5.45
2022-09-12T17:43:47.306Z,3.65
2022-09-12T17:46:14.218Z,5.55
2022-09-12T17:48:41.636Z,5.25
2022-09-12T17:51:11.867Z,9.55
2022-09-12T17:53:38.953Z,7.63
2022-09-12T17:56:07.427Z,3.25
2022-09-12T17:58:35.718Z,4.80
2022-09-12T18:01:31.837Z,4.07
2022-09-12T18:04:00.632Z,6.32
2022-09-12T18:06:32.485Z,6.28
2022-09-12T18:09:06.215Z,4.00
2022-09-12T18:11:34.064Z,5.10
2022-09-12T18:14:01.547Z,4.85
2022-09-12T18:16:28.533Z,3.95
2022-09-12T18:18:55.897Z,5.80
2022-09-12T18:21:22.736Z,7.38
2022-09-12T18:23:49.506Z,6.25
2022-09-12T18:26:16.272Z,6.55
2022-09-12T18:28:44.776Z,3.30
2022-09-12T18:31:18.529Z,3.67
2022-09-12T18:33:46.284Z,5.32
2022-09-12T18:36:14.890Z,3.78
2022-09-12T18:38:42.565Z,5.75
2022-09-12T18:41:22.255Z,4.47
2022-09-12T18:43:54.290Z,3.60
2022-09-12T18:46:21.564Z,5.82
2022-09-12T18:48:48.541Z,3.13
2022-09-12T18:51:22.167Z,3.90
2022-09-12T18:53:59.520Z,2.70
2022-09-12T18:56:32.702Z,3.75
2022-09-12T18:59:02.643Z,5.50
2022-09-12T19:01:36.254Z,4.28
2022-09-12T19:04:05.479Z,3.40
2022-09-12T19:06:42.452Z,3.10
2022-09-12T19:09:11.316Z,3.58
2022-09-12T19:11:42.432Z,3.40
2022-09-12T19:14:09.156Z,4.72
2022-09-12T19:16:36.067Z,5.85
2022-09-12T19:19:03.223Z,4.75
2022-09-12T19:21:32.818Z,4.40
2022-09-12T19:24:06.393Z,5.90
2022-09-12T19:26:34.102Z,3.65
2022-09-12T19:29:02.769Z,4.90
2022-09-12T19:31:30.150Z,3.85
2022-09-12T19:34:05.459Z,3.90
2022-09-12T19:36:48.349Z,6.28
2022-09-12T19:39:17.800Z,5.95
2022-09-12T19:41:45.653Z,3.85
2022-09-12T19:44:12.968Z,3.92
2022-09-12T19:46:40.217Z,6.43
2022-09-12T19:49:07.529Z,7.63
2022-09-12T19:51:34.310Z,6.55
2022-09-12T19:54:01.023Z,6.30
2022-09-12T19:56:27.790Z,8.32
2022-09-12T19:58:56.698Z,3.42
2022-09-12T20:01:30.409Z,5.78
2022-09-12T20:03:58.642Z,4.63
2022-09-12T20:06:26.797Z,5.25
2022-09-12T20:08:54.243Z,3.83
2022-09-12T20:11:23.506Z,4.57
2022-09-12T20:13:51.036Z,3.38
2022-09-12T20:16:23.233Z,5.35
2022-09-12T20:18:59.519Z,4.38
2022-09-12T20:21:33.939Z,5.65
2022-09-12T20:24:11.964Z,4.20
2022-09-12T20:26:40.079Z,4.95
2022-09-12T20:29:08.291Z,6.60
2022-09-12T20:31:38.635Z,7.75
2022-09-12T20:34:06.440Z,6.18
2022-09-12T20:36:33.870Z,4.65
2022-09-12T20:39:03.589Z,5.72
2022-09-12T20:41:35.717Z,10.15
2022-09-12T20:44:02.771Z,5.53
2022-09-12T20:46:29.638Z,5.35
2022-09-12T20:48:56.746Z,4.60
2022-09-12T20:51:26.464Z,5.43
2022-09-12T20:53:55.331Z,5.65
2022-09-12T20:56:23.904Z,4.43
2022-09-12T20:58:51.458Z,4.13
2022-09-12T21:01:18.446Z,5.80
2022-09-12T21:03:46.137Z,5.07
2022-09-12T21:06:16.870Z,5.68
2022-09-12T21:08:45.346Z,4.15
2022-09-12T21:11:12.799Z,5.55
2022-09-12T21:13:39.988Z,4.95
2022-09-12T21:16:17.130Z,5.03
2022-09-12T21:18:44.600Z,4.47
2022-09-12T21:21:14.250Z,4.90
2022-09-12T21:23:42.084Z,3.63
2022-09-12T21:26:09.584Z,4.22
2022-09-12T21:28:36.791Z,5.20
2022-09-12T21:31:04.052Z,4.72
2022-09-12T21:33:30.860Z,4.40
2022-09-12T21:36:05.839Z,7.07
2022-09-12T21:38:33.303Z,4.70
2022-09-12T21:41:08.464Z,5.03
2022-09-12T21:43:36.451Z,7.63
2022-09-12T21:46:04.515Z,4.95
2022-09-12T21:48:32.468Z,4.80
2022-09-12T21:50:59.717Z,9.43
2022-09-12T21:53:27.163Z,6.32
2022-09-12T21:55:53.875Z,5.03
2022-09-12T21:58:20.604Z,4.93
2022-09-12T22:00:48.191Z,6.72
2022-09-12T22:03:16.568Z,6.18
2022-09-12T22:05:43.655Z,6.22
2022-09-12T22:08:11.289Z,9.02
2022-09-12T22:10:40.920Z,5.45
2022-09-12T22:13:08.037Z,5.82
2022-09-12T22:15:41.812Z,7.72
2022-09-12T22:18:08.641Z,6.50
2022-09-12T22:20:35.368Z,7.40
2022-09-12T22:23:24.638Z,6.82
2022-09-12T22:25:55.512Z,4.32
2022-09-12T22:28:22.616Z,4.10
2022-09-12T22:30:49.346Z,5.43
2022-09-12T22:33:16.319Z,5.30
2022-09-12T22:35:43.033Z,5.70
2022-09-12T22:38:09.789Z,5.82
2022-09-12T22:40:36.684Z,6.47
2022-09-12T22:43:03.393Z,6.72
2022-09-12T22:45:30.228Z,4.45
2022-09-12T22:48:00.532Z,6.25
2022-09-12T22:50:28.080Z,6.70
2022-09-12T22:52:55.181Z,5.47
2022-09-12T22:55:21.915Z,6.35
2022-09-12T22:57:48.951Z,7.45
2022-09-12T23:00:15.828Z,5.82
2022-09-12T23:02:42.617Z,7.47
2022-09-12T23:05:10.755Z,4.88
2022-09-12T23:07:37.783Z,5.97
2022-09-12T23:10:05.178Z,8.05
2022-09-12T23:12:32.133Z,4.40
2022-09-12T23:14:58.939Z,4.05
2022-09-12T23:17:26.723Z,7.88
2022-09-12T23:19:53.580Z,5.80
2022-09-12T23:22:20.331Z,6.63
2022-09-12T23:24:47.128Z,8.40
2022-09-12T23:27:13.843Z,7.88
2022-09-12T23:29:40.551Z,6.68
2022-09-12T23:32:07.252Z,6.07
2022-09-12T23:34:34.013Z,5.88
2022-09-12T23:37:00.836Z,5.07
2022-09-12T23:39:27.547Z,7.20
2022-09-12T23:41:54.357Z,6.47
2022-09-12T23:44:21.124Z,5.20
2022-09-12T23:46:47.824Z,6.13
2022-09-12T23:49:14.758Z,5.22
2022-09-12T23:51:41.480Z,5.47
2022-09-12T23:54:08.606Z,5.15
2022-09-12T23:56:35.483Z,8.40
2022-09-12T23:59:02.183Z,6.72
